createdAt,value
2017-05-12T00:01:50.125Z,6.10
2017-05-12T00:04:17.045Z,6.06
2017-05-12T00:06:44.703Z,5.82
2017-05-12T00:09:11.593Z,5.88
2017-05-12T00:11:38.498Z,6.88
2017-05-12T00:14:06.434Z,6.67
2017-05-12T00:16:33.334Z,6.40
2017-05-12T00:19:00.226Z,7.05
2017-05-12T00:21:27.166Z,6.13
2017-05-12T00:23:54.072Z,6.45
2017-05-12T00:26:20.987Z,6.55
2017-05-12T00:28:48.645Z,6.80
2017-05-12T00:31:16.281Z,6.52
2017-05-12T00:33:43.174Z,6.48
2017-05-12T00:36:10.470Z,6.47
2017-05-12T00:38:37.378Z,5.67
2017-05-12T00:41:04.295Z,6.52
2017-05-12T00:43:32.428Z,6.33
2017-05-12T00:45:59.338Z,7.77
2017-05-12T00:48:26.244Z,7.13
2017-05-12T00:50:53.889Z,6.70
2017-05-12T00:53:20.797Z,7.30
2017-05-12T00:55:47.698Z,6.60
2017-05-12T00:58:15.371Z,6.87
2017-05-12T01:00:42.278Z,6.90
2017-05-12T01:03:09.187Z,7.27
2017-05-12T01:05:36.113Z,7.53
2017-05-12T01:08:03.009Z,6.92
2017-05-12T01:10:30.345Z,6.90
2017-05-12T01:12:57.265Z,6.83
2017-05-12T01:15:24.178Z,7.93
2017-05-12T01:17:51.098Z,7.30
2017-05-12T01:20:17.995Z,7.50
2017-05-12T01:22:44.911Z,7.98
2017-05-12T01:25:11.847Z,8.25
2017-05-12T01:27:39.627Z,7.82
2017-05-12T01:30:06.565Z,7.40
2017-05-12T01:32:33.505Z,8.32
2017-05-12T01:35:00.446Z,7.95
2017-05-12T01:37:27.363Z,8.47
2017-05-12T01:39:54.699Z,9.20
2017-05-12T01:42:21.642Z,7.25
2017-05-12T01:44:48.585Z,8.17
2017-05-12T01:47:15.531Z,7.30
2017-05-12T01:49:42.503Z,8.15
2017-05-12T01:52:09.437Z,7.97
2017-05-12T01:54:36.362Z,9.08
2017-05-12T01:57:03.301Z,8.20
2017-05-12T01:59:30.214Z,8.03
2017-05-12T02:01:57.159Z,8.65
2017-05-12T02:04:24.067Z,7.82
2017-05-12T02:06:51.743Z,7.72
2017-05-12T02:09:18.696Z,8.53
2017-05-12T02:11:45.685Z,9.12
2017-05-12T02:14:12.603Z,7.63
2017-05-12T02:16:39.768Z,7.12
2017-05-12T02:19:06.677Z,6.90
2017-05-12T02:21:33.606Z,6.82
2017-05-12T02:24:01.410Z,6.17
2017-05-12T02:26:28.346Z,6.63
2017-05-12T02:28:55.256Z,7.40
2017-05-12T02:31:22.925Z,7.10
2017-05-12T02:33:50.589Z,6.93
2017-05-12T02:36:17.517Z,7.03
2017-05-12T02:38:45.201Z,6.48
2017-05-12T02:41:12.126Z,7.83
2017-05-12T02:43:39.789Z,8.42
2017-05-12T02:46:07.834Z,7.38
2017-05-12T02:48:34.743Z,7.52
2017-05-12T02:51:01.669Z,8.35
2017-05-12T02:53:28.599Z,7.22
2017-05-12T02:55:56.263Z,6.87
2017-05-12T02:58:23.171Z,6.93
2017-05-12T03:00:50.109Z,8.10
2017-05-12T03:03:17.042Z,8.23
2017-05-12T03:05:43.961Z,8.18
2017-05-12T03:08:10.910Z,8.32
2017-05-12T03:10:37.826Z,8.75
2017-05-12T03:13:04.818Z,10.08
2017-05-12T03:15:31.754Z,9.52
2017-05-12T03:17:58.722Z,8.63
2017-05-12T03:20:25.665Z,10.08
2017-05-12T03:22:52.913Z,9.75
2017-05-12T03:25:19.834Z,9.77
2017-05-12T03:27:46.762Z,10.70
2017-05-12T03:30:13.690Z,10.15
2017-05-12T03:32:40.602Z,9.62
2017-05-12T03:35:07.547Z,9.43
2017-05-12T03:37:34.491Z,9.87
2017-05-12T03:40:01.410Z,10.53
2017-05-12T03:42:28.364Z,10.12
2017-05-12T03:44:55.711Z,8.93
2017-05-12T03:47:22.650Z,9.40
2017-05-12T03:49:49.578Z,8.62
2017-05-12T03:52:16.560Z,10.57
2017-05-12T03:54:43.490Z,10.15
2017-05-12T03:57:10.415Z,11.48
2017-05-12T03:59:37.372Z,9.53
2017-05-12T04:02:04.321Z,9.50
2017-05-12T04:04:31.374Z,9.10
2017-05-12T04:06:58.337Z,9.63
2017-05-12T04:09:25.289Z,9.38
2017-05-12T04:11:52.954Z,11.78
2017-05-12T04:14:20.991Z,12.05
2017-05-12T04:16:47.934Z,10.62
2017-05-12T04:19:14.839Z,9.80
2017-05-12T04:21:42.027Z,9.92
2017-05-12T04:24:08.951Z,10.55
2017-05-12T04:26:35.875Z,13.17
2017-05-12T04:29:02.873Z,13.90
2017-05-12T04:31:29.801Z,9.45
2017-05-12T04:33:56.726Z,8.93
2017-05-12T04:36:23.662Z,9.60
2017-05-12T04:38:50.604Z,9.48
2017-05-12T04:41:17.525Z,10.13
2017-05-12T04:43:44.497Z,10.30
2017-05-12T04:46:11.535Z,10.10
2017-05-12T04:48:38.485Z,10.50
2017-05-12T04:51:05.880Z,10.82
2017-05-12T04:53:32.822Z,9.92
2017-05-12T04:55:59.802Z,9.12
2017-05-12T04:58:27.506Z,11.50
2017-05-12T05:00:54.495Z,9.27
2017-05-12T05:03:22.183Z,9.47
2017-05-12T05:05:49.539Z,9.55
2017-05-12T05:08:17.128Z,9.42
2017-05-12T05:10:46.103Z,8.37
2017-05-12T05:13:15.698Z,9.37
2017-05-12T05:15:42.742Z,7.95
2017-05-12T05:18:11.188Z,8.05
2017-05-12T05:20:38.197Z,7.48
2017-05-12T05:23:05.310Z,7.77
2017-05-12T05:25:32.319Z,6.75
2017-05-12T05:27:59.393Z,7.85
2017-05-12T05:30:26.447Z,8.55
2017-05-12T05:32:53.647Z,8.17
2017-05-12T05:35:20.825Z,8.40
2017-05-12T05:37:48.058Z,6.88
2017-05-12T05:40:15.963Z,7.60
2017-05-12T05:42:43.297Z,7.50
2017-05-12T05:45:10.475Z,7.50
2017-05-12T05:47:37.648Z,7.36
2017-05-12T05:50:04.843Z,7.75
2017-05-12T05:52:32.048Z,7.55
2017-05-12T05:54:59.545Z,7.60
2017-05-12T05:57:27.628Z,7.65
2017-05-12T05:59:54.906Z,6.85
2017-05-12T06:02:22.086Z,6.65
2017-05-12T06:04:49.250Z,6.10
2017-05-12T06:07:17.228Z,7.55
2017-05-12T06:12:20.863Z,7.20
2017-05-12T06:14:48.787Z,8.93
2017-05-12T06:17:15.897Z,6.30
2017-05-12T06:19:42.874Z,6.48
2017-05-12T06:22:10.143Z,6.35
2017-05-12T06:24:37.143Z,7.62
2017-05-12T06:27:04.121Z,7.05
2017-05-12T06:29:33.270Z,6.87
2017-05-12T06:32:00.346Z,7.80
2017-05-12T06:34:27.377Z,6.13
2017-05-12T06:36:54.778Z,6.70
2017-05-12T06:39:21.863Z,6.48
2017-05-12T06:41:48.939Z,5.78
2017-05-12T06:44:16.016Z,6.12
2017-05-12T06:46:42.986Z,6.35
2017-05-12T06:49:09.999Z,5.46
2017-05-12T06:51:36.959Z,5.95
2017-05-12T06:54:04.109Z,6.08
2017-05-12T06:56:31.140Z,5.97
2017-05-12T06:58:58.205Z,8.83
2017-05-12T07:01:25.196Z,6.02
2017-05-12T07:03:52.294Z,4.95
2017-05-12T07:06:19.389Z,5.00
2017-05-12T07:08:46.386Z,5.02
2017-05-12T07:11:13.355Z,4.90
2017-05-12T07:13:41.092Z,5.23
2017-05-12T07:16:08.075Z,4.92
2017-05-12T07:18:35.068Z,4.10
2017-05-12T07:21:02.102Z,4.28
2017-05-12T07:23:29.110Z,4.92
2017-05-12T07:25:56.882Z,4.13
2017-05-12T07:28:24.270Z,3.70
2017-05-12T07:30:51.278Z,4.64
2017-05-12T07:33:19.369Z,4.47
2017-05-12T07:35:46.511Z,4.22
2017-05-12T07:38:13.665Z,3.94
2017-05-12T07:40:40.747Z,3.30
2017-05-12T07:43:07.895Z,3.23
2017-05-12T07:45:34.963Z,3.54
2017-05-12T07:48:02.785Z,2.88
2017-05-12T07:50:29.795Z,3.22
2017-05-12T07:52:56.827Z,2.90
2017-05-12T07:55:23.825Z,3.02
2017-05-12T07:57:50.915Z,2.90
2017-05-12T08:00:19.361Z,2.88
2017-05-12T08:02:46.349Z,3.73
2017-05-12T08:05:14.102Z,2.97
2017-05-12T08:07:41.118Z,4.40
2017-05-12T08:10:08.092Z,4.35
2017-05-12T08:12:35.070Z,3.40
2017-05-12T08:15:02.074Z,3.67
2017-05-12T08:17:29.051Z,3.17
2017-05-12T08:19:56.788Z,4.53
2017-05-12T08:22:23.739Z,3.55
2017-05-12T08:24:50.705Z,4.25
2017-05-12T08:27:18.471Z,3.42
2017-05-12T08:29:46.213Z,4.28
2017-05-12T08:32:13.882Z,4.83
2017-05-12T08:34:42.096Z,4.05
2017-05-12T08:37:09.031Z,4.70
2017-05-12T08:39:35.991Z,4.68
2017-05-12T08:42:02.977Z,5.33
2017-05-12T08:44:29.919Z,4.30
2017-05-12T08:46:56.878Z,4.18
2017-05-12T08:49:24.604Z,4.57
2017-05-12T08:51:51.604Z,5.88
2017-05-12T08:54:18.584Z,4.27
2017-05-12T08:56:45.549Z,4.30
2017-05-12T08:59:12.524Z,4.22
2017-05-12T09:01:40.365Z,4.50
2017-05-12T09:04:07.365Z,4.60
2017-05-12T09:06:34.388Z,4.67
2017-05-12T09:09:02.171Z,4.50
2017-05-12T09:11:29.167Z,4.68
2017-05-12T09:13:56.168Z,4.98
2017-05-12T09:16:23.168Z,4.42
2017-05-12T09:18:50.239Z,4.38
2017-05-12T09:21:17.260Z,4.38
2017-05-12T09:23:44.261Z,4.28
2017-05-12T09:26:11.257Z,5.00
2017-05-12T09:28:38.240Z,4.44
2017-05-12T09:31:05.177Z,4.68
2017-05-12T09:33:32.414Z,4.17
2017-05-12T09:36:00.105Z,4.60
2017-05-12T09:38:27.070Z,4.40
2017-05-12T09:40:54.040Z,6.15
2017-05-12T09:43:21.011Z,5.27
2017-05-12T09:45:48.731Z,4.90
2017-05-12T09:48:15.750Z,3.92
2017-05-12T09:50:42.699Z,5.20
2017-05-12T09:53:09.642Z,7.57
2017-05-12T09:55:36.601Z,3.45
2017-05-12T09:58:03.565Z,2.48
2017-05-12T10:00:32.640Z,2.83
2017-05-12T10:02:59.632Z,2.27
2017-05-12T10:05:27.352Z,2.58
2017-05-12T10:07:54.360Z,2.45
2017-05-12T10:10:21.392Z,2.33
2017-05-12T10:12:49.155Z,2.07
2017-05-12T10:15:16.838Z,2.85
2017-05-12T10:17:43.928Z,2.90
2017-05-12T10:20:10.884Z,4.13
2017-05-12T10:22:37.850Z,3.46
2017-05-12T10:25:04.818Z,3.10
2017-05-12T10:27:31.763Z,3.03
2017-05-12T10:29:58.679Z,3.30
2017-05-12T10:32:25.607Z,3.25
2017-05-12T10:34:52.548Z,3.38
2017-05-12T10:37:19.536Z,3.92
2017-05-12T10:39:46.497Z,4.20
2017-05-12T10:42:13.437Z,7.20
2017-05-12T10:44:40.405Z,4.03
2017-05-12T10:47:07.378Z,3.38
2017-05-12T10:49:35.095Z,6.22
2017-05-12T10:52:02.070Z,4.10
2017-05-12T10:54:29.035Z,3.43
2017-05-12T10:56:56.731Z,4.22
2017-05-12T10:59:23.691Z,3.88
2017-05-12T11:01:50.666Z,4.45
2017-05-12T11:04:17.610Z,4.68
2017-05-12T11:06:44.644Z,4.27
2017-05-12T11:09:11.604Z,4.28
2017-05-12T11:11:38.555Z,3.37
2017-05-12T11:14:05.503Z,3.98
2017-05-12T11:16:32.471Z,4.00
2017-05-12T11:19:00.245Z,4.20
2017-05-12T11:21:27.212Z,4.43
2017-05-12T11:23:54.240Z,4.60
2017-05-12T11:26:21.525Z,5.68
2017-05-12T11:28:49.182Z,7.48
2017-05-12T11:31:18.781Z,5.22
2017-05-12T11:33:46.535Z,5.50
2017-05-12T11:36:13.515Z,4.60
2017-05-12T11:38:41.697Z,5.40
2017-05-12T11:41:08.667Z,5.05
2017-05-12T11:43:36.389Z,5.13
2017-05-12T11:46:03.388Z,4.23
2017-05-12T11:48:30.366Z,4.28
2017-05-12T11:50:58.230Z,4.15
2017-05-12T11:53:25.246Z,4.47
2017-05-12T11:55:52.265Z,5.00
2017-05-12T11:58:19.197Z,5.55
2017-05-12T12:00:46.188Z,7.43
2017-05-12T12:03:13.175Z,5.37
2017-05-12T12:05:40.200Z,5.47
2017-05-12T12:08:07.623Z,5.63
2017-05-12T12:10:34.626Z,6.37
2017-05-12T12:13:01.651Z,6.93
2017-05-12T12:15:28.635Z,6.80
2017-05-12T12:17:56.390Z,7.95
2017-05-12T12:20:23.404Z,6.77
2017-05-12T12:22:50.390Z,6.28
2017-05-12T12:25:17.404Z,8.55
2017-05-12T12:27:44.413Z,7.73
2017-05-12T12:30:11.420Z,6.42
2017-05-12T12:32:38.396Z,6.60
2017-05-12T12:35:05.347Z,6.43
2017-05-12T12:37:32.373Z,6.00
2017-05-12T12:39:59.349Z,6.27
2017-05-12T12:42:26.307Z,5.90
2017-05-12T12:44:53.300Z,6.20
2017-05-12T12:47:21.018Z,5.02
2017-05-12T12:49:47.963Z,4.15
2017-05-12T12:52:14.934Z,4.75
2017-05-12T12:54:41.857Z,5.80
2017-05-12T12:57:08.810Z,7.80
2017-05-12T12:59:35.883Z,4.67
2017-05-12T13:02:03.581Z,5.32
2017-05-12T13:04:30.593Z,6.10
2017-05-12T13:06:57.590Z,5.60
2017-05-12T13:09:24.548Z,9.95
2017-05-12T13:11:51.555Z,6.80
2017-05-12T13:14:18.549Z,11.82
2017-05-12T13:16:45.527Z,9.28
2017-05-12T13:19:13.189Z,3.47
2017-05-12T13:21:40.916Z,5.50
2017-05-12T13:24:08.175Z,5.18
2017-05-12T13:26:35.207Z,3.98
2017-05-12T13:29:02.282Z,2.77
2017-05-12T13:31:29.207Z,3.78
2017-05-12T13:33:56.159Z,2.38
2017-05-12T13:36:23.086Z,5.37
2017-05-12T13:38:50.090Z,3.33
2017-05-12T13:41:17.240Z,3.22
2017-05-12T13:43:44.367Z,5.20
2017-05-12T13:46:12.030Z,3.55
2017-05-12T13:48:39.705Z,2.92
2017-05-12T13:51:06.668Z,3.23
2017-05-12T13:53:34.428Z,3.05
2017-05-12T13:56:01.385Z,3.40
2017-05-12T13:58:28.344Z,6.25
2017-05-12T14:00:55.282Z,3.57
2017-05-12T14:03:22.219Z,4.17
2017-05-12T14:05:49.151Z,4.52
2017-05-12T14:08:16.453Z,4.28
2017-05-12T14:10:43.416Z,3.78
2017-05-12T14:13:11.090Z,3.98
2017-05-12T14:15:38.758Z,4.23
2017-05-12T14:18:05.751Z,5.22
2017-05-12T14:20:33.121Z,3.80
2017-05-12T14:23:00.060Z,3.00
2017-05-12T14:25:27.053Z,3.50
2017-05-12T14:27:54.036Z,3.02
2017-05-12T14:30:20.991Z,4.50
2017-05-12T14:32:47.940Z,11.45
2017-05-12T14:35:14.877Z,5.05
2017-05-12T14:37:41.805Z,9.02
2017-05-12T14:40:08.806Z,5.52
2017-05-12T14:42:36.870Z,4.93
2017-05-12T14:45:04.567Z,4.85
2017-05-12T14:47:31.531Z,5.30
2017-05-12T14:49:58.449Z,5.52
2017-05-12T14:52:25.412Z,4.98
2017-05-12T14:54:52.152Z,5.20
2017-05-12T14:57:19.126Z,6.37
2017-05-12T14:59:46.093Z,6.43
2017-05-12T15:02:13.750Z,6.42
2017-05-12T15:04:41.422Z,5.42
2017-05-12T15:07:09.119Z,5.07
2017-05-12T15:09:36.035Z,4.67
2017-05-12T15:12:03.019Z,4.00
2017-05-12T15:14:29.969Z,4.77
2017-05-12T15:16:56.922Z,5.92
2017-05-12T15:19:23.884Z,5.70
2017-05-12T15:21:50.835Z,4.95
2017-05-12T15:24:17.766Z,4.80
2017-05-12T15:26:44.733Z,5.88
2017-05-12T15:29:12.489Z,7.80
2017-05-12T15:31:39.430Z,5.95
2017-05-12T15:34:07.151Z,5.60
2017-05-12T15:36:34.120Z,6.27
2017-05-12T15:39:01.058Z,6.63
2017-05-12T15:41:28.010Z,5.65
2017-05-12T15:43:54.964Z,7.88
2017-05-12T15:46:21.978Z,12.90
2017-05-12T15:48:49.047Z,8.57
2017-05-12T15:51:16.047Z,8.62
2017-05-12T15:53:42.991Z,10.93
2017-05-12T15:56:09.938Z,9.85
2017-05-12T15:58:36.980Z,10.73
2017-05-12T16:01:03.997Z,8.18
2017-05-12T16:03:31.758Z,8.23
2017-05-12T16:05:59.482Z,7.58
2017-05-12T16:08:26.516Z,6.83
2017-05-12T16:10:53.658Z,5.43
2017-05-12T16:13:20.610Z,4.50
2017-05-12T16:15:47.534Z,9.05
2017-05-12T16:18:14.946Z,4.60
2017-05-12T16:20:41.891Z,5.80
2017-05-12T16:23:08.833Z,16.52
2017-05-12T16:25:35.776Z,11.30
2017-05-12T16:28:02.738Z,22.68
2017-05-12T16:30:30.457Z,7.72
2017-05-12T16:32:57.806Z,5.90
2017-05-12T16:35:24.809Z,4.88
2017-05-12T16:37:51.769Z,6.58
2017-05-12T16:40:18.735Z,9.93
2017-05-12T16:42:45.759Z,4.70
2017-05-12T16:45:12.719Z,5.43
2017-05-12T16:47:40.140Z,5.77
2017-05-12T16:50:07.906Z,4.78
2017-05-12T16:52:35.627Z,5.47
2017-05-12T16:55:02.986Z,6.23
2017-05-12T16:57:29.984Z,6.07
2017-05-12T16:59:56.957Z,7.42
2017-05-12T17:02:23.946Z,7.78
2017-05-12T17:04:51.745Z,8.72
2017-05-12T17:07:18.783Z,8.23
2017-05-12T17:09:45.830Z,11.82
2017-05-12T17:12:12.847Z,7.12
2017-05-12T17:14:39.898Z,7.15
2017-05-12T17:17:08.128Z,8.25
2017-05-12T17:19:35.236Z,10.40
2017-05-12T17:22:02.234Z,11.15
2017-05-12T17:24:29.420Z,13.72
2017-05-12T17:26:57.199Z,15.83
2017-05-12T17:29:24.215Z,20.02
2017-05-12T17:31:51.230Z,9.00
2017-05-12T17:34:18.246Z,9.02
2017-05-12T17:36:45.308Z,9.18
2017-05-12T17:39:12.379Z,9.40
2017-05-12T17:41:39.359Z,10.25
2017-05-12T17:44:07.101Z,11.17
2017-05-12T17:46:34.165Z,10.85
2017-05-12T17:49:05.602Z,9.35
2017-05-12T17:51:32.588Z,8.92
2017-05-12T17:54:19.302Z,8.12
2017-05-12T17:56:46.392Z,8.08
2017-05-12T17:59:13.463Z,10.95
2017-05-12T18:01:41.702Z,10.73
2017-05-12T18:04:08.938Z,9.12
2017-05-12T18:06:37.116Z,9.85
2017-05-12T18:09:04.178Z,9.80
2017-05-12T18:11:31.306Z,11.90
2017-05-12T18:13:58.411Z,23.65
2017-05-12T18:16:26.147Z,16.05
2017-05-12T18:18:53.924Z,14.08
2017-05-12T18:21:20.945Z,28.07
2017-05-12T18:23:47.968Z,30.50
2017-05-12T18:26:15.093Z,23.52
2017-05-12T18:28:42.069Z,27.30
2017-05-12T18:31:09.225Z,13.78
2017-05-12T18:33:36.239Z,48.97
2017-05-12T18:36:03.310Z,30.95
2017-05-12T18:38:30.390Z,34.95
2017-05-12T18:40:57.432Z,35.08
2017-05-12T18:43:24.476Z,75.62
2017-05-12T18:45:51.476Z,52.55
2017-05-12T18:48:18.500Z,13.43
2017-05-12T18:50:45.886Z,11.62
2017-05-12T18:53:13.328Z,7.25
2017-05-12T18:55:40.533Z,12.98
2017-05-12T18:58:07.885Z,22.18
2017-05-12T19:00:34.932Z,24.03
2017-05-12T19:03:02.000Z,21.98
2017-05-12T19:05:29.855Z,37.92
2017-05-12T19:07:57.106Z,40.85
2017-05-12T19:10:24.930Z,16.32
2017-05-12T19:12:52.303Z,9.42
2017-05-12T19:15:19.590Z,9.53
2017-05-12T19:17:48.568Z,12.08
2017-05-12T19:20:16.736Z,8.48
2017-05-12T19:22:43.891Z,8.30
2017-05-12T19:25:10.998Z,8.02
2017-05-12T19:27:38.398Z,9.13
2017-05-12T19:30:06.641Z,10.73
2017-05-12T19:32:33.760Z,10.95
2017-05-12T19:35:00.890Z,10.68
2017-05-12T19:37:27.956Z,10.90
2017-05-12T19:39:55.107Z,9.40
2017-05-12T19:42:22.242Z,9.55
2017-05-12T19:44:49.500Z,11.00
2017-05-12T19:47:16.736Z,11.18
2017-05-12T19:49:43.953Z,10.67
2017-05-12T19:52:11.029Z,10.70
2017-05-12T19:54:38.896Z,10.37
2017-05-12T19:57:05.941Z,10.25
2017-05-12T19:59:33.729Z,9.15
2017-05-12T20:02:00.991Z,10.03
2017-05-12T20:04:28.066Z,8.15
2017-05-12T20:06:55.282Z,8.22
2017-05-12T20:09:22.429Z,9.20
2017-05-12T20:11:50.393Z,10.60
2017-05-12T20:14:17.443Z,11.50
2017-05-12T20:16:44.471Z,13.13
2017-05-12T20:19:11.717Z,15.87
2017-05-12T20:21:40.173Z,29.75
2017-05-12T20:24:07.489Z,32.58
2017-05-12T20:26:34.474Z,25.10
2017-05-12T20:29:01.524Z,19.30
2017-05-12T20:31:28.628Z,13.63
2017-05-12T20:33:55.905Z,14.34
2017-05-12T20:36:23.071Z,11.18
2017-05-12T20:38:50.295Z,10.17
2017-05-12T20:41:17.513Z,9.72
2017-05-12T20:43:44.655Z,9.56
2017-05-12T20:46:12.112Z,9.50
2017-05-12T20:48:39.293Z,8.80
2017-05-12T20:51:06.557Z,9.20
2017-05-12T20:53:33.650Z,9.20
2017-05-12T20:56:00.685Z,8.83
2017-05-12T20:58:28.511Z,9.28
2017-05-12T21:00:55.595Z,8.42
2017-05-12T21:03:22.561Z,8.07
2017-05-12T21:05:49.558Z,9.68
2017-05-12T21:08:16.575Z,9.88
2017-05-12T21:10:43.808Z,9.68
2017-05-12T21:13:10.990Z,10.42
2017-05-12T21:15:38.068Z,9.82
2017-05-12T21:18:05.029Z,8.93
2017-05-12T21:20:32.248Z,10.02
2017-05-12T21:22:59.647Z,8.67
2017-05-12T21:25:27.391Z,10.02
2017-05-12T21:27:54.356Z,11.37
2017-05-12T21:30:21.546Z,10.60
2017-05-12T21:32:48.618Z,10.88
2017-05-12T21:35:15.562Z,12.32
2017-05-12T21:37:42.694Z,12.00
2017-05-12T21:40:11.100Z,11.25
2017-05-12T21:42:39.778Z,11.28
2017-05-12T21:45:06.761Z,12.12
2017-05-12T21:47:33.691Z,28.20
2017-05-12T21:50:01.482Z,11.97
2017-05-12T21:52:28.439Z,13.37
2017-05-12T21:54:55.397Z,13.47
2017-05-12T21:57:22.381Z,14.22
2017-05-12T21:59:50.081Z,13.10
2017-05-12T22:02:17.058Z,15.93
2017-05-12T22:04:44.018Z,16.73
2017-05-12T22:07:11.005Z,19.08
2017-05-12T22:09:37.959Z,21.17
2017-05-12T22:12:04.917Z,19.67
2017-05-12T22:14:31.913Z,17.38
2017-05-12T22:16:59.649Z,17.38
2017-05-12T22:19:26.626Z,18.53
2017-05-12T22:21:54.333Z,16.22
2017-05-12T22:24:21.308Z,14.90
2017-05-12T22:26:48.311Z,15.82
2017-05-12T22:29:15.287Z,19.82
2017-05-12T22:31:42.331Z,17.85
2017-05-12T22:34:09.259Z,17.02
2017-05-12T22:36:36.226Z,15.42
2017-05-12T22:39:03.221Z,15.93
2017-05-12T22:41:31.190Z,15.47
2017-05-12T22:43:58.136Z,14.42
2017-05-12T22:46:25.058Z,14.98
2017-05-12T22:48:51.972Z,15.17
2017-05-12T22:51:18.936Z,15.17
2017-05-12T22:53:45.915Z,14.33
2017-05-12T22:56:12.925Z,15.32
2017-05-12T22:58:39.933Z,14.68
2017-05-12T23:01:06.877Z,13.97
2017-05-12T23:03:33.814Z,14.83
2017-05-12T23:06:00.792Z,14.10
2017-05-12T23:08:27.728Z,13.52
2017-05-12T23:10:54.703Z,14.62
2017-05-12T23:13:21.721Z,15.23
2017-05-12T23:15:48.671Z,14.70
2017-05-12T23:18:15.633Z,15.03
2017-05-12T23:20:42.582Z,14.20
2017-05-12T23:23:10.272Z,14.27
2017-05-12T23:25:37.251Z,13.87
2017-05-12T23:28:04.580Z,14.67
2017-05-12T23:30:31.547Z,14.40
2017-05-12T23:32:58.498Z,12.28
2017-05-12T23:35:25.463Z,12.18
2017-05-12T23:37:52.437Z,12.63
2017-05-12T23:40:19.414Z,11.32
2017-05-12T23:42:46.403Z,11.55
2017-05-12T23:45:14.098Z,11.75
2017-05-12T23:47:41.052Z,12.32
2017-05-12T23:50:08.024Z,12.32
2017-05-12T23:52:34.977Z,12.23
2017-05-12T23:55:01.949Z,13.03
2017-05-12T23:57:29.181Z,11.62
2017-05-12T23:59:56.142Z,11.72
